createdAt,value
2022-11-03T00:00:48.061Z,63.45
2022-11-03T00:02:49.582Z,57.35
2022-11-03T00:04:51.207Z,62.28
2022-11-03T00:06:54.723Z,75.25
2022-11-03T00:09:00.502Z,69.68
2022-11-03T00:11:09.158Z,69.18
2022-11-03T00:13:10.587Z,56.70
2022-11-03T00:15:12.054Z,71.10
2022-11-03T00:17:13.512Z,55.88
2022-11-03T00:19:16.996Z,61.65
2022-11-03T00:21:18.509Z,63.00
2022-11-03T00:23:20.015Z,67.50
2022-11-03T00:25:21.550Z,59.13
2022-11-03T00:27:23.033Z,63.22
2022-11-03T00:29:25.073Z,77.25
2022-11-03T00:31:32.010Z,74.75
2022-11-03T00:33:34.184Z,81.70
2022-11-03T00:35:35.751Z,69.18
2022-11-03T00:37:37.275Z,61.08
2022-11-03T00:39:38.753Z,60.80
2022-11-03T00:41:40.915Z,64.93
2022-11-03T00:43:42.894Z,56.85
2022-11-03T00:45:44.318Z,57.88
2022-11-03T00:48:04.315Z,51.47
2022-11-03T00:50:05.937Z,54.72
2022-11-03T00:52:07.451Z,48.80
2022-11-03T00:54:09.036Z,62.40
2022-11-03T00:56:15.714Z,66.30
2022-11-03T00:58:17.281Z,54.30
2022-11-03T01:00:18.923Z,44.60
2022-11-03T01:02:20.450Z,52.83
2022-11-03T01:04:40.688Z,50.47
2022-11-03T01:06:51.408Z,51.35
2022-11-03T01:08:53.231Z,58.65
2022-11-03T01:11:13.256Z,47.20
2022-11-03T01:13:14.950Z,50.03
2022-11-03T01:15:16.451Z,55.40
2022-11-03T01:17:20.612Z,51.60
2022-11-03T01:19:22.466Z,49.20
2022-11-03T01:21:24.693Z,57.05
2022-11-03T01:23:26.215Z,48.13
2022-11-03T01:25:27.667Z,50.63
2022-11-03T01:27:29.179Z,58.00
2022-11-03T01:29:30.669Z,64.78
2022-11-03T01:31:32.314Z,77.20
2022-11-03T01:33:33.895Z,75.25
2022-11-03T01:35:35.347Z,81.95
2022-11-03T01:37:36.855Z,80.57
2022-11-03T01:39:38.323Z,96.50
2022-11-03T01:41:40.945Z,92.95
2022-11-03T01:43:42.711Z,93.22
2022-11-03T01:45:45.158Z,133.40
2022-11-03T01:47:47.184Z,132.93
2022-11-03T01:49:55.021Z,110.07
2022-11-03T01:52:17.597Z,121.25
2022-11-03T01:54:24.175Z,131.85
2022-11-03T01:56:26.911Z,110.63
2022-11-03T01:58:31.397Z,84.43
2022-11-03T02:00:33.294Z,89.72
2022-11-03T02:02:34.985Z,76.75
2022-11-03T02:04:36.640Z,73.32
2022-11-03T02:06:38.195Z,76.75
2022-11-03T02:08:49.215Z,78.80
2022-11-03T02:10:51.701Z,65.60
2022-11-03T02:12:53.643Z,72.18
2022-11-03T02:15:00.733Z,70.18
2022-11-03T02:17:07.725Z,72.95
2022-11-03T02:19:25.442Z,85.50
2022-11-03T02:21:37.362Z,77.95
2022-11-03T02:23:47.162Z,73.18
2022-11-03T02:27:51.826Z,56.35
2022-11-03T02:29:53.566Z,64.57
2022-11-03T02:32:06.133Z,70.43
2022-11-03T02:34:15.930Z,67.53
2022-11-03T02:36:31.411Z,64.50
2022-11-03T02:38:36.367Z,55.17
2022-11-03T02:40:43.254Z,64.65
2022-11-03T02:42:50.940Z,62.67
2022-11-03T02:44:54.134Z,68.70
2022-11-03T02:47:00.731Z,62.75
2022-11-03T02:49:02.300Z,53.33
2022-11-03T02:51:05.068Z,44.88
2022-11-03T02:53:06.633Z,52.03
2022-11-03T02:55:11.300Z,53.03
2022-11-03T02:57:21.236Z,47.70
2022-11-03T02:59:29.563Z,52.22
2022-11-03T03:01:37.326Z,59.35
2022-11-03T03:03:48.167Z,73.50
2022-11-03T03:05:54.061Z,66.85
2022-11-03T03:08:03.667Z,63.95
2022-11-03T03:10:12.691Z,81.97
2022-11-03T03:12:17.295Z,90.07
2022-11-03T03:14:22.890Z,87.47
2022-11-03T03:16:31.171Z,105.05
2022-11-03T03:18:45.306Z,129.95
2022-11-03T03:20:55.076Z,76.28
2022-11-03T03:25:06.615Z,56.40
2022-11-03T03:27:12.656Z,96.82
2022-11-03T03:29:17.391Z,62.28
2022-11-03T03:31:20.502Z,51.10
2022-11-03T03:33:22.881Z,42.70
2022-11-03T03:35:27.503Z,55.22
2022-11-03T03:37:30.995Z,81.20
2022-11-03T03:39:36.587Z,50.13
2022-11-03T03:41:39.355Z,55.28
2022-11-03T03:43:42.089Z,62.35
2022-11-03T03:45:46.115Z,70.18
2022-11-03T03:47:48.093Z,58.67
2022-11-03T03:49:49.931Z,37.65
2022-11-03T03:51:51.642Z,41.40
2022-11-03T03:53:53.783Z,32.72
2022-11-03T03:55:55.780Z,36.35
2022-11-03T03:57:59.493Z,34.53
2022-11-03T04:00:02.103Z,35.67
2022-11-03T04:02:03.681Z,33.72
2022-11-03T04:04:05.402Z,36.90
2022-11-03T04:06:08.075Z,37.30
2022-11-03T04:08:10.812Z,37.72
2022-11-03T04:10:12.327Z,41.42
2022-11-03T04:12:32.664Z,36.47
2022-11-03T04:14:52.752Z,68.85
2022-11-03T04:17:12.659Z,152.07
2022-11-03T04:19:32.594Z,82.82
2022-11-03T04:21:52.599Z,51.17
2022-11-03T04:23:54.096Z,81.90
2022-11-03T04:25:57.134Z,129.40
2022-11-03T04:27:58.645Z,278.55
2022-11-03T04:30:10.260Z,282.60
2022-11-03T04:32:17.813Z,219.57
2022-11-03T04:34:19.280Z,102.38
2022-11-03T04:36:23.633Z,81.38
2022-11-03T04:38:27.299Z,83.72
2022-11-03T04:40:29.182Z,72.18
2022-11-03T04:42:33.247Z,67.40
2022-11-03T04:44:34.735Z,59.90
2022-11-03T04:46:36.205Z,50.65
2022-11-03T04:48:37.924Z,55.88
2022-11-03T04:50:45.560Z,66.30
2022-11-03T04:52:51.450Z,75.20
2022-11-03T04:54:53.983Z,125.15
2022-11-03T04:56:55.895Z,432.55
2022-11-03T04:58:58.555Z,472.60
2022-11-03T05:01:01.533Z,447.60
2022-11-03T05:03:03.779Z,315.42
2022-11-03T05:05:16.855Z,361.83
2022-11-03T05:07:36.128Z,324.52
2022-11-03T05:09:41.793Z,197.88
2022-11-03T05:11:46.405Z,116.22
2022-11-03T05:13:48.926Z,104.93
2022-11-03T05:15:52.098Z,94.15
2022-11-03T05:17:53.693Z,132.75
2022-11-03T05:19:58.965Z,153.07
2022-11-03T05:22:02.762Z,116.80
2022-11-03T05:24:11.675Z,86.22
2022-11-03T05:26:34.161Z,77.55
2022-11-03T05:28:39.470Z,97.55
2022-11-03T05:30:40.975Z,89.25
2022-11-03T05:32:42.431Z,97.68
2022-11-03T05:34:47.618Z,121.00
2022-11-03T05:36:49.072Z,79.28
2022-11-03T05:38:54.240Z,81.32
2022-11-03T05:40:55.730Z,74.95
2022-11-03T05:42:59.787Z,71.95
2022-11-03T05:45:04.648Z,68.03
2022-11-03T05:47:39.572Z,65.43
2022-11-03T05:49:41.076Z,90.63
2022-11-03T05:51:45.238Z,190.07
2022-11-03T05:53:49.983Z,161.15
2022-11-03T05:55:51.971Z,140.73
2022-11-03T05:57:59.488Z,114.35
2022-11-03T06:00:01.182Z,96.40
2022-11-03T06:02:05.658Z,78.38
2022-11-03T06:04:24.788Z,61.92
2022-11-03T06:06:38.424Z,59.13
2022-11-03T06:08:43.108Z,50.00
2022-11-03T06:10:53.769Z,53.10
2022-11-03T06:13:31.131Z,56.30
2022-11-03T06:15:35.142Z,48.55
2022-11-03T06:17:37.995Z,43.72
2022-11-03T06:19:47.971Z,77.05
2022-11-03T06:21:51.556Z,50.90
2022-11-03T06:23:54.972Z,49.47
2022-11-03T06:25:57.338Z,93.10
2022-11-03T06:28:05.181Z,62.83
2022-11-03T06:30:24.077Z,65.63
2022-11-03T06:32:25.726Z,146.30
2022-11-03T06:34:49.322Z,184.45
2022-11-03T06:36:50.856Z,228.18
2022-11-03T06:39:02.304Z,169.20
2022-11-03T06:41:03.824Z,158.13
2022-11-03T06:43:28.780Z,130.13
2022-11-03T06:45:30.434Z,111.20
2022-11-03T06:47:32.961Z,28.70
2022-11-03T06:49:36.049Z,30.25
2022-11-03T06:51:37.509Z,24.92
2022-11-03T06:53:39.032Z,25.98
2022-11-03T06:55:40.620Z,23.13
2022-11-03T06:57:44.482Z,20.50
2022-11-03T06:59:46.113Z,21.80
2022-11-03T07:01:53.451Z,35.17
2022-11-03T07:04:01.758Z,38.88
2022-11-03T07:06:21.191Z,21.05
2022-11-03T07:08:47.909Z,17.88
2022-11-03T07:10:51.895Z,14.80
2022-11-03T07:12:55.256Z,16.02
2022-11-03T07:14:58.751Z,14.18
2022-11-03T07:17:05.649Z,14.75
2022-11-03T07:19:15.133Z,13.07
2022-11-03T07:21:38.251Z,14.90
2022-11-03T07:23:42.154Z,12.77
2022-11-03T07:25:54.435Z,13.25
2022-11-03T07:27:57.408Z,14.35
2022-11-03T07:30:03.597Z,16.50
2022-11-03T07:32:18.567Z,14.63
2022-11-03T07:34:23.766Z,14.00
2022-11-03T07:36:29.370Z,16.15
2022-11-03T07:38:33.367Z,20.17
2022-11-03T07:40:35.229Z,13.40
2022-11-03T07:42:36.666Z,15.52
2022-11-03T07:44:38.571Z,14.93
2022-11-03T07:46:40.083Z,14.00
2022-11-03T07:48:46.935Z,15.07
2022-11-03T07:50:50.324Z,14.30
2022-11-03T07:52:51.803Z,15.98
2022-11-03T07:54:56.024Z,16.92
2022-11-03T07:57:01.030Z,16.88
2022-11-03T07:59:16.437Z,18.33
2022-11-03T08:01:34.845Z,23.40
2022-11-03T08:03:46.253Z,16.08
2022-11-03T08:05:47.707Z,21.80
2022-11-03T08:07:49.218Z,19.83
2022-11-03T08:09:51.736Z,28.83
2022-11-03T08:11:53.274Z,22.70
2022-11-03T08:13:54.873Z,19.38
2022-11-03T08:15:56.344Z,19.30
2022-11-03T08:17:57.984Z,23.35
2022-11-03T08:19:59.498Z,24.60
2022-11-03T08:22:00.958Z,36.45
2022-11-03T08:24:02.535Z,26.73
2022-11-03T08:26:04.570Z,18.83
2022-11-03T08:28:06.711Z,17.05
2022-11-03T08:30:11.100Z,19.38
2022-11-03T08:32:12.579Z,17.50
2022-11-03T08:34:14.044Z,15.93
2022-11-03T08:36:15.564Z,37.92
2022-11-03T08:38:17.019Z,15.35
2022-11-03T08:40:18.766Z,15.13
2022-11-03T08:42:20.223Z,16.20
2022-11-03T08:44:21.674Z,16.40
2022-11-03T08:46:23.265Z,14.73
2022-11-03T08:48:27.434Z,12.70
2022-11-03T08:50:29.032Z,15.35
2022-11-03T08:52:30.577Z,13.95
2022-11-03T08:54:32.120Z,13.15
2022-11-03T08:56:33.594Z,12.82
2022-11-03T08:58:35.153Z,11.93
2022-11-03T09:00:40.770Z,18.05
2022-11-03T09:02:45.841Z,16.65
2022-11-03T09:04:47.500Z,13.82
2022-11-03T09:06:49.024Z,10.95
2022-11-03T09:11:12.434Z,13.50
2022-11-03T09:13:14.492Z,9.45
2022-11-03T09:15:16.031Z,14.18
2022-11-03T09:17:17.507Z,13.43
2022-11-03T09:19:19.099Z,10.70
2022-11-03T09:21:20.610Z,18.15
2022-11-03T09:23:22.592Z,13.55
2022-11-03T09:25:24.203Z,16.90
2022-11-03T09:27:25.660Z,10.18
2022-11-03T09:29:30.170Z,12.30
2022-11-03T09:31:42.095Z,11.93
2022-11-03T09:33:43.561Z,8.57
2022-11-03T09:35:45.403Z,6.90
2022-11-03T09:37:46.961Z,9.65
2022-11-03T09:39:48.550Z,7.93
2022-11-03T09:41:58.545Z,11.80
2022-11-03T09:44:01.189Z,14.00
2022-11-03T09:46:02.979Z,11.40
2022-11-03T09:48:05.699Z,9.90
2022-11-03T09:50:13.748Z,7.22
2022-11-03T09:52:21.191Z,9.02
2022-11-03T09:54:22.995Z,7.90
2022-11-03T09:56:26.891Z,8.20
2022-11-03T09:58:28.371Z,8.00
2022-11-03T10:00:30.130Z,10.88
2022-11-03T10:02:32.505Z,6.78
2022-11-03T10:04:34.023Z,7.30
2022-11-03T10:06:35.531Z,8.88
2022-11-03T10:08:39.827Z,12.55
2022-11-03T10:10:41.746Z,10.45
2022-11-03T10:12:43.460Z,10.02
2022-11-03T10:14:46.764Z,6.25
2022-11-03T10:17:00.473Z,7.13
2022-11-03T10:19:02.081Z,9.57
2022-11-03T10:21:23.759Z,5.05
2022-11-03T10:23:25.186Z,8.68
2022-11-03T10:25:37.958Z,7.20
2022-11-03T10:27:39.745Z,8.85
2022-11-03T10:29:43.719Z,7.65
2022-11-03T10:31:53.923Z,6.28
2022-11-03T10:33:56.176Z,6.65
2022-11-03T10:36:02.425Z,9.63
2022-11-03T10:38:28.984Z,6.05
2022-11-03T10:40:47.681Z,5.28
2022-11-03T10:42:59.510Z,3.97
2022-11-03T10:45:19.383Z,8.38
2022-11-03T10:49:43.847Z,9.25
2022-11-03T10:51:49.377Z,7.65
2022-11-03T10:53:50.875Z,6.97
2022-11-03T10:55:52.530Z,8.55
2022-11-03T10:57:55.850Z,10.82
2022-11-03T10:59:58.273Z,7.40
2022-11-03T11:02:01.240Z,7.43
2022-11-03T11:04:04.662Z,7.93
2022-11-03T11:06:06.318Z,6.32
2022-11-03T11:08:09.670Z,5.78
2022-11-03T11:10:18.614Z,12.05
2022-11-03T11:12:26.043Z,14.10
2022-11-03T11:14:40.107Z,9.88
2022-11-03T11:16:59.353Z,17.30
2022-11-03T11:19:22.632Z,10.00
2022-11-03T11:21:28.102Z,7.35
2022-11-03T11:23:48.104Z,8.10
2022-11-03T11:26:14.262Z,6.63
2022-11-03T11:28:20.065Z,7.88
2022-11-03T11:30:21.463Z,10.88
2022-11-03T11:32:46.502Z,8.98
2022-11-03T11:34:48.111Z,14.55
2022-11-03T11:36:55.586Z,17.42
2022-11-03T11:38:58.567Z,7.78
2022-11-03T11:41:00.102Z,11.85
2022-11-03T11:43:01.843Z,6.97
2022-11-03T11:45:04.022Z,9.32
2022-11-03T11:47:22.266Z,9.98
2022-11-03T11:49:23.777Z,7.95
2022-11-03T11:51:25.407Z,8.65
2022-11-03T11:53:31.869Z,9.70
2022-11-03T11:55:55.922Z,13.73
2022-11-03T11:57:59.560Z,9.98
2022-11-03T12:00:01.601Z,6.28
2022-11-03T12:02:03.561Z,7.57
2022-11-03T12:06:34.576Z,7.43
2022-11-03T12:08:36.161Z,9.75
2022-11-03T12:10:37.733Z,7.63
2022-11-03T12:12:39.183Z,6.68
2022-11-03T12:14:41.201Z,6.07
2022-11-03T12:16:42.631Z,8.68
2022-11-03T12:18:50.179Z,4.90
2022-11-03T12:20:51.903Z,4.40
2022-11-03T12:22:53.396Z,4.40
2022-11-03T12:24:56.819Z,8.43
2022-11-03T12:26:59.615Z,10.45
2022-11-03T12:29:01.113Z,9.32
2022-11-03T12:31:03.835Z,8.15
2022-11-03T12:33:05.563Z,8.88
2022-11-03T12:35:09.210Z,5.47
2022-11-03T12:37:10.851Z,5.78
2022-11-03T12:39:12.647Z,5.82
2022-11-03T12:41:24.737Z,6.65
2022-11-03T12:43:26.191Z,7.57
2022-11-03T12:45:27.666Z,7.15
2022-11-03T12:47:29.197Z,9.05
2022-11-03T12:49:31.717Z,7.38
2022-11-03T12:51:33.166Z,10.70
2022-11-03T12:53:34.599Z,15.85
2022-11-03T12:55:37.275Z,6.35
2022-11-03T12:57:40.940Z,4.57
2022-11-03T12:59:43.358Z,8.95
2022-11-03T13:01:45.030Z,13.25
2022-11-03T13:03:46.634Z,10.38
2022-11-03T13:05:49.022Z,12.85
2022-11-03T13:07:50.576Z,10.15
2022-11-03T13:09:52.169Z,9.50
2022-11-03T13:12:12.630Z,7.13
2022-11-03T13:14:14.190Z,11.32
2022-11-03T13:16:15.657Z,11.15
2022-11-03T13:18:17.139Z,9.90
2022-11-03T13:20:18.732Z,9.68
2022-11-03T13:22:20.645Z,7.28
2022-11-03T13:24:22.225Z,7.00
2022-11-03T13:26:23.694Z,9.68
2022-11-03T13:28:25.352Z,14.02
2022-11-03T13:30:27.693Z,7.70
2022-11-03T13:32:29.328Z,8.70
2022-11-03T13:34:31.187Z,7.70
2022-11-03T13:36:32.764Z,9.20
2022-11-03T13:38:34.379Z,7.78
2022-11-03T13:40:55.396Z,9.73
2022-11-03T13:42:57.448Z,8.95
2022-11-03T13:44:58.964Z,11.98
2022-11-03T13:47:00.827Z,11.43
2022-11-03T13:49:52.107Z,11.57
2022-11-03T13:51:23.888Z,7.50
2022-11-03T13:55:47.138Z,12.68
2022-11-03T14:00:14.020Z,13.90
2022-11-03T14:06:41.320Z,7.25
2022-11-03T14:08:42.919Z,12.98
2022-11-03T14:10:46.572Z,10.38
2022-11-03T14:12:48.082Z,10.63
2022-11-03T14:14:49.595Z,11.85
2022-11-03T14:16:51.146Z,11.90
2022-11-03T14:18:52.879Z,9.55
2022-11-03T14:20:54.461Z,9.55
2022-11-03T14:22:55.924Z,10.82
2022-11-03T14:24:57.861Z,8.65
2022-11-03T14:26:59.485Z,11.02
2022-11-03T14:29:01.193Z,8.05
2022-11-03T14:31:05.422Z,10.80
2022-11-03T14:33:07.083Z,10.98
2022-11-03T14:35:09.206Z,12.43
2022-11-03T14:37:11.416Z,14.23
2022-11-03T14:39:13.175Z,16.20
2022-11-03T14:41:33.475Z,21.45
2022-11-03T14:43:35.412Z,20.00
2022-11-03T14:45:39.830Z,27.33
2022-11-03T14:47:43.959Z,18.33
2022-11-03T14:49:46.422Z,20.08
2022-11-03T14:51:48.080Z,18.60
2022-11-03T14:53:49.738Z,17.77
2022-11-03T14:55:51.209Z,16.33
2022-11-03T14:57:52.736Z,14.65
2022-11-03T14:59:55.599Z,19.17
2022-11-03T15:01:58.446Z,17.60
2022-11-03T15:04:00.222Z,23.60
2022-11-03T15:06:01.806Z,35.45
2022-11-03T15:08:03.269Z,25.27
2022-11-03T15:10:05.106Z,28.90
2022-11-03T15:12:06.810Z,26.02
2022-11-03T15:14:09.247Z,30.95
2022-11-03T15:16:10.746Z,52.33
2022-11-03T15:18:12.403Z,81.22
2022-11-03T15:20:14.114Z,78.65
2022-11-03T15:22:15.888Z,80.38
2022-11-03T15:26:38.863Z,65.30
2022-11-03T15:28:42.269Z,62.90
2022-11-03T15:30:43.775Z,45.28
2022-11-03T15:32:45.435Z,46.47
2022-11-03T15:34:46.916Z,54.80
2022-11-03T15:36:48.364Z,33.60
2022-11-03T15:38:49.900Z,32.03
2022-11-03T15:40:51.367Z,42.85
2022-11-03T15:42:53.326Z,71.82
2022-11-03T15:44:55.004Z,97.70
2022-11-03T15:46:56.461Z,49.97
2022-11-03T15:48:58.074Z,47.80
2022-11-03T15:50:59.563Z,31.45
2022-11-03T15:53:01.099Z,26.98
2022-11-03T15:55:02.906Z,46.80
2022-11-03T15:57:04.472Z,68.28
2022-11-03T15:59:05.978Z,59.40
2022-11-03T16:01:07.844Z,58.28
2022-11-03T16:03:09.514Z,62.38
2022-11-03T16:05:11.344Z,64.53
2022-11-03T16:07:12.906Z,60.97
2022-11-03T16:09:14.354Z,51.80
2022-11-03T16:11:15.885Z,39.95
2022-11-03T16:13:17.359Z,55.55
2022-11-03T16:15:18.813Z,50.83
2022-11-03T16:17:22.401Z,47.03
2022-11-03T16:19:24.131Z,67.07
2022-11-03T16:21:25.599Z,81.18
2022-11-03T16:23:27.110Z,44.65
2022-11-03T16:25:28.609Z,57.00
2022-11-03T16:27:30.225Z,34.35
2022-11-03T16:29:31.805Z,39.53
2022-11-03T16:31:33.251Z,47.10
2022-11-03T16:33:34.898Z,80.18
2022-11-03T16:35:36.383Z,48.70
2022-11-03T16:37:37.926Z,70.68
2022-11-03T16:39:39.370Z,84.00
2022-11-03T16:41:40.843Z,86.93
2022-11-03T16:43:42.458Z,69.43
2022-11-03T16:45:44.008Z,37.63
2022-11-03T16:47:49.955Z,114.13
2022-11-03T16:49:53.035Z,48.33
2022-11-03T16:51:54.834Z,49.75
2022-11-03T16:53:58.206Z,66.93
2022-11-03T16:55:59.667Z,63.20
2022-11-03T16:58:01.255Z,36.60
2022-11-03T17:00:04.176Z,37.42
2022-11-03T17:02:05.940Z,46.85
2022-11-03T17:04:07.495Z,46.22
2022-11-03T17:06:08.947Z,51.15
2022-11-03T17:08:38.558Z,33.65
2022-11-03T17:10:32.031Z,35.33
2022-11-03T17:12:33.647Z,31.70
2022-11-03T17:14:36.229Z,50.80
2022-11-03T17:16:37.712Z,81.35
2022-11-03T17:18:39.234Z,162.05
2022-11-03T17:20:40.695Z,50.72
2022-11-03T17:22:42.268Z,60.30
2022-11-03T17:24:43.923Z,33.22
2022-11-03T17:26:51.512Z,40.63
2022-11-03T17:28:54.370Z,41.72
2022-11-03T17:30:55.888Z,38.20
2022-11-03T17:33:04.970Z,37.50
2022-11-03T17:35:38.633Z,34.28
2022-11-03T17:37:40.968Z,55.90
2022-11-03T17:39:43.122Z,64.50
2022-11-03T17:41:44.598Z,64.93
2022-11-03T17:43:46.115Z,71.95
2022-11-03T17:45:48.142Z,92.25
2022-11-03T17:47:49.888Z,81.93
2022-11-03T17:49:51.747Z,61.17
2022-11-03T17:51:53.847Z,49.70
2022-11-03T17:53:55.546Z,87.13
2022-11-03T17:56:27.716Z,124.60
2022-11-03T17:58:29.871Z,114.22
2022-11-03T18:00:31.490Z,106.57
2022-11-03T18:02:40.860Z,35.00
2022-11-03T18:04:42.380Z,30.02
2022-11-03T18:06:45.514Z,61.95
2022-11-03T18:08:47.959Z,469.10
2022-11-03T18:10:51.893Z,114.72
2022-11-03T18:13:15.438Z,62.60
2022-11-03T18:15:22.440Z,54.13
2022-11-03T18:17:23.963Z,56.22
2022-11-03T18:19:25.544Z,101.75
2022-11-03T18:21:28.569Z,117.80
2022-11-03T18:23:34.656Z,95.63
2022-11-03T18:25:36.138Z,60.17
2022-11-03T18:27:37.618Z,55.20
2022-11-03T18:29:39.074Z,86.82
2022-11-03T18:31:50.482Z,58.33
2022-11-03T18:33:53.517Z,171.05
2022-11-03T18:35:55.467Z,68.80
2022-11-03T18:37:57.088Z,106.53
2022-11-03T18:39:59.250Z,91.85
2022-11-03T18:42:00.781Z,42.40
2022-11-03T18:44:03.122Z,54.15
2022-11-03T18:46:04.672Z,48.55
2022-11-03T18:48:06.170Z,27.65
2022-11-03T18:50:09.997Z,61.90
2022-11-03T18:52:16.233Z,65.30
2022-11-03T18:54:21.044Z,29.55
2022-11-03T18:56:22.939Z,101.25
2022-11-03T18:58:25.808Z,82.25
2022-11-03T19:00:27.355Z,66.70
2022-11-03T19:02:28.834Z,47.10
2022-11-03T19:04:32.142Z,53.97
2022-11-03T19:06:33.791Z,181.23
2022-11-03T19:08:36.431Z,64.43
2022-11-03T19:10:39.570Z,56.10
2022-11-03T19:12:44.287Z,86.97
2022-11-03T19:14:48.158Z,34.38
2022-11-03T19:17:17.154Z,36.15
2022-11-03T19:19:14.399Z,82.78
2022-11-03T19:21:18.441Z,80.88
2022-11-03T19:23:19.952Z,82.80
2022-11-03T19:25:21.538Z,67.50
2022-11-03T19:27:26.432Z,70.25
2022-11-03T19:29:30.952Z,105.97
2022-11-03T19:31:43.519Z,80.45
2022-11-03T19:33:45.018Z,51.95
2022-11-03T19:35:47.271Z,95.00
2022-11-03T19:37:53.338Z,65.32
2022-11-03T19:39:55.870Z,36.55
2022-11-03T19:42:20.149Z,40.15
2022-11-03T19:44:21.770Z,55.33
2022-11-03T19:46:23.311Z,35.55
2022-11-03T19:48:26.700Z,79.00
2022-11-03T19:50:30.731Z,51.28
2022-11-03T19:52:34.555Z,30.42
2022-11-03T19:54:36.002Z,42.20
2022-11-03T19:56:37.574Z,27.85
2022-11-03T19:58:39.011Z,63.42
2022-11-03T20:00:40.792Z,55.28
2022-11-03T20:02:44.340Z,60.70
2022-11-03T20:04:47.378Z,49.70
2022-11-03T20:06:48.871Z,48.80
2022-11-03T20:08:50.518Z,66.78
2022-11-03T20:10:52.752Z,32.85
2022-11-03T20:12:54.406Z,36.90
2022-11-03T20:14:55.863Z,31.77
2022-11-03T20:17:02.338Z,79.70
2022-11-03T20:19:03.854Z,45.72
2022-11-03T20:21:05.717Z,37.33
2022-11-03T20:23:11.719Z,49.67
2022-11-03T20:25:21.169Z,57.38
2022-11-03T20:27:22.624Z,65.35
2022-11-03T20:29:24.207Z,32.70
2022-11-03T20:31:25.724Z,33.72
2022-11-03T20:33:27.206Z,49.55
2022-11-03T20:35:28.811Z,33.08
2022-11-03T20:37:30.267Z,25.70
2022-11-03T20:39:31.775Z,32.30
2022-11-03T20:41:33.295Z,37.85
2022-11-03T20:43:43.486Z,45.08
2022-11-03T20:45:44.987Z,71.60
2022-11-03T20:47:48.300Z,64.03
2022-11-03T20:49:50.069Z,30.20
2022-11-03T20:51:51.686Z,25.48
2022-11-03T20:53:53.580Z,35.42
2022-11-03T20:55:55.148Z,29.73
2022-11-03T20:57:56.661Z,27.02
2022-11-03T20:59:58.135Z,28.05
2022-11-03T21:01:59.800Z,50.30
2022-11-03T21:04:03.209Z,29.02
2022-11-03T21:06:04.689Z,38.42
2022-11-03T21:08:09.818Z,30.50
2022-11-03T21:10:15.510Z,40.75
2022-11-03T21:12:19.552Z,31.15
2022-11-03T21:14:25.600Z,36.78
2022-11-03T21:16:47.673Z,29.92
2022-11-03T21:19:08.034Z,27.48
2022-11-03T21:21:11.310Z,31.00
2022-11-03T21:23:20.530Z,47.47
2022-11-03T21:25:24.037Z,46.13
2022-11-03T21:27:26.059Z,45.50
2022-11-03T21:29:53.477Z,28.27
2022-11-03T21:31:49.013Z,24.67
2022-11-03T21:33:50.502Z,28.52
2022-11-03T21:35:52.338Z,27.00
2022-11-03T21:37:53.805Z,33.55
2022-11-03T21:39:55.238Z,34.10
2022-11-03T21:42:15.969Z,81.38
2022-11-03T21:44:17.487Z,41.15
2022-11-03T21:46:18.930Z,40.22
2022-11-03T21:48:39.253Z,43.30
2022-11-03T21:50:41.363Z,46.70
2022-11-03T21:52:42.808Z,74.07
2022-11-03T21:54:44.584Z,47.42
2022-11-03T21:56:46.938Z,44.17
2022-11-03T21:58:48.423Z,40.72
2022-11-03T22:00:49.933Z,37.53
2022-11-03T22:02:51.536Z,32.53
2022-11-03T22:04:55.416Z,34.63
2022-11-03T22:06:58.680Z,40.35
2022-11-03T22:09:00.124Z,32.92
2022-11-03T22:11:22.478Z,32.75
2022-11-03T22:13:23.941Z,40.10
2022-11-03T22:15:43.902Z,36.75
2022-11-03T22:17:45.394Z,37.42
2022-11-03T22:20:09.823Z,35.92
2022-11-03T22:22:32.950Z,32.78
2022-11-03T22:24:53.435Z,34.00
2022-11-03T22:26:57.517Z,29.95
2022-11-03T22:29:24.635Z,29.45
2022-11-03T22:31:41.061Z,30.60
2022-11-03T22:34:01.324Z,32.38
2022-11-03T22:36:22.095Z,31.75
2022-11-03T22:38:43.626Z,30.10
2022-11-03T22:41:06.003Z,33.10
2022-11-03T22:43:41.029Z,31.17
2022-11-03T22:45:51.547Z,29.60
2022-11-03T22:47:57.353Z,31.15
2022-11-03T22:49:59.264Z,28.60
2022-11-03T22:52:00.830Z,32.25
2022-11-03T22:54:11.422Z,34.63
2022-11-03T22:56:13.336Z,32.88
2022-11-03T22:58:14.953Z,30.08
2022-11-03T23:00:17.372Z,25.88
2022-11-03T23:02:18.995Z,33.90
2022-11-03T23:04:20.537Z,32.50
2022-11-03T23:06:25.105Z,34.63
2022-11-03T23:08:29.560Z,35.72
2022-11-03T23:10:31.524Z,39.85
2022-11-03T23:12:33.294Z,33.10
2022-11-03T23:14:53.236Z,33.72
2022-11-03T23:16:54.674Z,28.45
2022-11-03T23:19:16.198Z,35.35
2022-11-03T23:21:17.669Z,30.90
2022-11-03T23:23:37.706Z,30.92
2022-11-03T23:25:39.232Z,28.95
2022-11-03T23:27:40.659Z,36.75
2022-11-03T23:29:42.147Z,34.38
2022-11-03T23:31:44.984Z,32.17
2022-11-03T23:33:46.720Z,28.38
2022-11-03T23:35:48.182Z,28.17
2022-11-03T23:37:49.655Z,29.15
2022-11-03T23:39:51.083Z,32.15
2022-11-03T23:41:52.537Z,30.77
2022-11-03T23:43:55.242Z,30.77
2022-11-03T23:46:15.517Z,41.05
2022-11-03T23:48:36.676Z,37.38
2022-11-03T23:50:38.834Z,32.17
2022-11-03T23:52:40.338Z,35.42
2022-11-03T23:54:41.773Z,35.75
2022-11-03T23:57:04.529Z,33.88
2022-11-03T23:59:07.330Z,35.60
